<?xml version="1.0" encoding="UTF-8" standalone="no" ?>
<gpx xmlns="http://www.topografix.com/GPX/1/1" xmlns:xsi="http://www.w3.org/2001/XMLSchema-instance" xsi:schemaLocation="http://www.topografix.com/GPX/1/1 http://www.topografix.com/GPX/1/1/gpx.xsd" version="1.1" creator="VisuGPX - https://www.visugpx.com">
  <metadata>
    <name>La Fauritte - La Ventouse</name>
    <desc><![CDATA[La Fauritte - La Ventouse par la route des Dragonnades]]></desc>
  </metadata>
  <trk>
    <name><![CDATA[ACTIVE LOG124919]]></name>
    <trkseg>
      <trkpt lat="44.87629" lon="4.45514">
        <ele>575.889</ele>
        <time>2011-05-16T12:49:18Z</time>
      </trkpt>
      <trkpt lat="44.87626" lon="4.45496">
        <ele>576.489</ele>
        <time>2011-05-16T12:49:28Z</time>
      </trkpt>
      <trkpt lat="44.87622" lon="4.45489">
        <ele>578.084</ele>
        <time>2011-05-16T12:49:33Z</time>
      </trkpt>
      <trkpt lat="44.87611" lon="4.45475">
        <ele>578.312</ele>
        <time>2011-05-16T12:49:50Z</time>
      </trkpt>
      <trkpt lat="44.87607" lon="4.45468">
        <ele>578.673</ele>
        <time>2011-05-16T12:49:56Z</time>
      </trkpt>
      <trkpt lat="44.87601" lon="4.45459">
        <ele>578.993</ele>
        <time>2011-05-16T12:50:05Z</time>
      </trkpt>
      <trkpt lat="44.87591" lon="4.4544">
        <ele>579.793</ele>
        <time>2011-05-16T12:50:22Z</time>
      </trkpt>
      <trkpt lat="44.87579" lon="4.45416">
        <ele>580.296</ele>
        <time>2011-05-16T12:50:43Z</time>
      </trkpt>
      <trkpt lat="44.87571" lon="4.45398">
        <ele>580.211</ele>
        <time>2011-05-16T12:50:59Z</time>
      </trkpt>
      <trkpt lat="44.8756" lon="4.45377">
        <ele>580.46</ele>
        <time>2011-05-16T12:51:16Z</time>
      </trkpt>
      <trkpt lat="44.87543" lon="4.45351">
        <ele>580.942</ele>
        <time>2011-05-16T12:51:41Z</time>
      </trkpt>
      <trkpt lat="44.87539" lon="4.45347">
        <ele>580.906</ele>
        <time>2011-05-16T12:51:45Z</time>
      </trkpt>
      <trkpt lat="44.87521" lon="4.45325">
        <ele>580.49</ele>
        <time>2011-05-16T12:52:10Z</time>
      </trkpt>
      <trkpt lat="44.87502" lon="4.45308">
        <ele>580.365</ele>
        <time>2011-05-16T12:52:31Z</time>
      </trkpt>
      <trkpt lat="44.87483" lon="4.45299">
        <ele>580.557</ele>
        <time>2011-05-16T12:52:50Z</time>
      </trkpt>
      <trkpt lat="44.87465" lon="4.45293">
        <ele>580.42</ele>
        <time>2011-05-16T12:53:09Z</time>
      </trkpt>
      <trkpt lat="44.87441" lon="4.45285">
        <ele>580.302</ele>
        <time>2011-05-16T12:53:31Z</time>
      </trkpt>
      <trkpt lat="44.87428" lon="4.45276">
        <ele>580.484</ele>
        <time>2011-05-16T12:53:44Z</time>
      </trkpt>
      <trkpt lat="44.87421" lon="4.45273">
        <ele>581.247</ele>
        <time>2011-05-16T12:53:51Z</time>
      </trkpt>
      <trkpt lat="44.87408" lon="4.45264">
        <ele>580.973</ele>
        <time>2011-05-16T12:54:05Z</time>
      </trkpt>
      <trkpt lat="44.87402" lon="4.45263">
        <ele>581.721</ele>
        <time>2011-05-16T12:54:11Z</time>
      </trkpt>
      <trkpt lat="44.87385" lon="4.45253">
        <ele>582.953</ele>
        <time>2011-05-16T12:54:28Z</time>
      </trkpt>
      <trkpt lat="44.87375" lon="4.45241">
        <ele>584.425</ele>
        <time>2011-05-16T12:54:41Z</time>
      </trkpt>
      <trkpt lat="44.87358" lon="4.45224">
        <ele>586.054</ele>
        <time>2011-05-16T12:55:00Z</time>
      </trkpt>
      <trkpt lat="44.87354" lon="4.45218">
        <ele>585.195</ele>
        <time>2011-05-16T12:55:05Z</time>
      </trkpt>
      <trkpt lat="44.87342" lon="4.45202">
        <ele>585.097</ele>
        <time>2011-05-16T12:55:20Z</time>
      </trkpt>
      <trkpt lat="44.87338" lon="4.45197">
        <ele>584.589</ele>
        <time>2011-05-16T12:55:34Z</time>
      </trkpt>
      <trkpt lat="44.87332" lon="4.45182">
        <ele>584.395</ele>
        <time>2011-05-16T12:55:45Z</time>
      </trkpt>
      <trkpt lat="44.87314" lon="4.45162">
        <ele>585.078</ele>
        <time>2011-05-16T12:56:05Z</time>
      </trkpt>
      <trkpt lat="44.87297" lon="4.45145">
        <ele>585.266</ele>
        <time>2011-05-16T12:56:23Z</time>
      </trkpt>
      <trkpt lat="44.8729" lon="4.45136">
        <ele>585.906</ele>
        <time>2011-05-16T12:56:32Z</time>
      </trkpt>
      <trkpt lat="44.87277" lon="4.4511">
        <ele>587.759</ele>
        <time>2011-05-16T12:56:52Z</time>
      </trkpt>
      <trkpt lat="44.87266" lon="4.45089">
        <ele>588.848</ele>
        <time>2011-05-16T12:57:08Z</time>
      </trkpt>
      <trkpt lat="44.87256" lon="4.45069">
        <ele>589.802</ele>
        <time>2011-05-16T12:57:24Z</time>
      </trkpt>
      <trkpt lat="44.87249" lon="4.45056">
        <ele>590.478</ele>
        <time>2011-05-16T12:57:34Z</time>
      </trkpt>
      <trkpt lat="44.87241" lon="4.45035">
        <ele>592.154</ele>
        <time>2011-05-16T12:57:51Z</time>
      </trkpt>
      <trkpt lat="44.87234" lon="4.4502">
        <ele>593.099</ele>
        <time>2011-05-16T12:58:06Z</time>
      </trkpt>
      <trkpt lat="44.87224" lon="4.44996">
        <ele>595.189</ele>
        <time>2011-05-16T12:58:25Z</time>
      </trkpt>
      <trkpt lat="44.87211" lon="4.44982">
        <ele>596.612</ele>
        <time>2011-05-16T12:58:43Z</time>
      </trkpt>
      <trkpt lat="44.87204" lon="4.44989">
        <ele>597.46</ele>
        <time>2011-05-16T12:58:56Z</time>
      </trkpt>
      <trkpt lat="44.87198" lon="4.44994">
        <ele>598.596</ele>
        <time>2011-05-16T12:59:25Z</time>
      </trkpt>
      <trkpt lat="44.87185" lon="4.44997">
        <ele>600.842</ele>
        <time>2011-05-16T12:59:46Z</time>
      </trkpt>
      <trkpt lat="44.87177" lon="4.44991">
        <ele>601.438</ele>
        <time>2011-05-16T12:59:52Z</time>
      </trkpt>
      <trkpt lat="44.87168" lon="4.44989">
        <ele>602.563</ele>
        <time>2011-05-16T13:00:01Z</time>
      </trkpt>
      <trkpt lat="44.87156" lon="4.44989">
        <ele>603.947</ele>
        <time>2011-05-16T13:00:16Z</time>
      </trkpt>
      <trkpt lat="44.87154" lon="4.44988">
        <ele>604.251</ele>
        <time>2011-05-16T13:00:26Z</time>
      </trkpt>
      <trkpt lat="44.87141" lon="4.44989">
        <ele>606.24</ele>
        <time>2011-05-16T13:00:41Z</time>
      </trkpt>
      <trkpt lat="44.8713" lon="4.44991">
        <ele>607.218</ele>
        <time>2011-05-16T13:00:53Z</time>
      </trkpt>
      <trkpt lat="44.87118" lon="4.44992">
        <ele>608.643</ele>
        <time>2011-05-16T13:01:05Z</time>
      </trkpt>
      <trkpt lat="44.87111" lon="4.44995">
        <ele>609.325</ele>
        <time>2011-05-16T13:01:13Z</time>
      </trkpt>
      <trkpt lat="44.87107" lon="4.44998">
        <ele>609.656</ele>
        <time>2011-05-16T13:01:17Z</time>
      </trkpt>
      <trkpt lat="44.87103" lon="4.44999">
        <ele>610.136</ele>
        <time>2011-05-16T13:01:22Z</time>
      </trkpt>
      <trkpt lat="44.87094" lon="4.44997">
        <ele>611.291</ele>
        <time>2011-05-16T13:01:33Z</time>
      </trkpt>
      <trkpt lat="44.87092" lon="4.44997">
        <ele>611.366</ele>
        <time>2011-05-16T13:01:35Z</time>
      </trkpt>
      <trkpt lat="44.87077" lon="4.44998">
        <ele>613.534</ele>
        <time>2011-05-16T13:01:49Z</time>
      </trkpt>
      <trkpt lat="44.87069" lon="4.44994">
        <ele>615.024</ele>
        <time>2011-05-16T13:01:59Z</time>
      </trkpt>
      <trkpt lat="44.87065" lon="4.44992">
        <ele>615.174</ele>
        <time>2011-05-16T13:02:03Z</time>
      </trkpt>
      <trkpt lat="44.87062" lon="4.44991">
        <ele>616.054</ele>
        <time>2011-05-16T13:02:06Z</time>
      </trkpt>
      <trkpt lat="44.87046" lon="4.44984">
        <ele>618.196</ele>
        <time>2011-05-16T13:02:24Z</time>
      </trkpt>
      <trkpt lat="44.87025" lon="4.44976">
        <ele>620.816</ele>
        <time>2011-05-16T13:02:48Z</time>
      </trkpt>
      <trkpt lat="44.87007" lon="4.44967">
        <ele>623.186</ele>
        <time>2011-05-16T13:03:10Z</time>
      </trkpt>
      <trkpt lat="44.87002" lon="4.44964">
        <ele>623.73</ele>
        <time>2011-05-16T13:03:27Z</time>
      </trkpt>
      <trkpt lat="44.86992" lon="4.44961">
        <ele>624.844</ele>
        <time>2011-05-16T13:03:47Z</time>
      </trkpt>
      <trkpt lat="44.86983" lon="4.44957">
        <ele>626.523</ele>
        <time>2011-05-16T13:04:06Z</time>
      </trkpt>
      <trkpt lat="44.86966" lon="4.44944">
        <ele>628.87</ele>
        <time>2011-05-16T13:04:25Z</time>
      </trkpt>
      <trkpt lat="44.8695" lon="4.44928">
        <ele>631.126</ele>
        <time>2011-05-16T13:04:44Z</time>
      </trkpt>
      <trkpt lat="44.86943" lon="4.44917">
        <ele>632.649</ele>
        <time>2011-05-16T13:05:04Z</time>
      </trkpt>
      <trkpt lat="44.86927" lon="4.44898">
        <ele>633.863</ele>
        <time>2011-05-16T13:05:24Z</time>
      </trkpt>
      <trkpt lat="44.86921" lon="4.44892">
        <ele>634.188</ele>
        <time>2011-05-16T13:06:31Z</time>
      </trkpt>
      <trkpt lat="44.86923" lon="4.4489">
        <ele>634.271</ele>
        <time>2011-05-16T13:07:01Z</time>
      </trkpt>
      <trkpt lat="44.86923" lon="4.44895">
        <ele>634.807</ele>
        <time>2011-05-16T13:07:12Z</time>
      </trkpt>
      <trkpt lat="44.86927" lon="4.44899">
        <ele>634.794</ele>
        <time>2011-05-16T13:07:27Z</time>
      </trkpt>
      <trkpt lat="44.86926" lon="4.449">
        <ele>634.547</ele>
        <time>2011-05-16T13:07:45Z</time>
      </trkpt>
      <trkpt lat="44.86927" lon="4.44903">
        <ele>635.002</ele>
        <time>2011-05-16T13:07:48Z</time>
      </trkpt>
      <trkpt lat="44.86935" lon="4.44919">
        <ele>636.68</ele>
        <time>2011-05-16T13:08:03Z</time>
      </trkpt>
      <trkpt lat="44.86945" lon="4.44937">
        <ele>638.585</ele>
        <time>2011-05-16T13:08:20Z</time>
      </trkpt>
      <trkpt lat="44.86953" lon="4.44958">
        <ele>639.82</ele>
        <time>2011-05-16T13:08:37Z</time>
      </trkpt>
      <trkpt lat="44.86954" lon="4.4496">
        <ele>640.407</ele>
        <time>2011-05-16T13:08:39Z</time>
      </trkpt>
      <trkpt lat="44.86963" lon="4.44976">
        <ele>641.729</ele>
        <time>2011-05-16T13:08:53Z</time>
      </trkpt>
      <trkpt lat="44.86969" lon="4.44996">
        <ele>643.177</ele>
        <time>2011-05-16T13:09:10Z</time>
      </trkpt>
      <trkpt lat="44.86977" lon="4.45009">
        <ele>644.334</ele>
        <time>2011-05-16T13:09:24Z</time>
      </trkpt>
      <trkpt lat="44.86989" lon="4.45034">
        <ele>647.002</ele>
        <time>2011-05-16T13:09:46Z</time>
      </trkpt>
      <trkpt lat="44.86994" lon="4.45046">
        <ele>648.055</ele>
        <time>2011-05-16T13:09:56Z</time>
      </trkpt>
      <trkpt lat="44.86997" lon="4.45054">
        <ele>648.964</ele>
        <time>2011-05-16T13:10:03Z</time>
      </trkpt>
      <trkpt lat="44.86998" lon="4.45064">
        <ele>650.672</ele>
        <time>2011-05-16T13:10:19Z</time>
      </trkpt>
      <trkpt lat="44.87" lon="4.45061">
        <ele>650.219</ele>
        <time>2011-05-16T13:10:25Z</time>
      </trkpt>
      <trkpt lat="44.86999" lon="4.45075">
        <ele>651.705</ele>
        <time>2011-05-16T13:10:36Z</time>
      </trkpt>
      <trkpt lat="44.87" lon="4.45087">
        <ele>652.211</ele>
        <time>2011-05-16T13:10:44Z</time>
      </trkpt>
      <trkpt lat="44.87001" lon="4.45089">
        <ele>652.362</ele>
        <time>2011-05-16T13:10:46Z</time>
      </trkpt>
      <trkpt lat="44.87004" lon="4.45105">
        <ele>653.268</ele>
        <time>2011-05-16T13:10:57Z</time>
      </trkpt>
      <trkpt lat="44.87005" lon="4.45116">
        <ele>654.173</ele>
        <time>2011-05-16T13:11:06Z</time>
      </trkpt>
      <trkpt lat="44.87006" lon="4.45119">
        <ele>653.916</ele>
        <time>2011-05-16T13:11:08Z</time>
      </trkpt>
      <trkpt lat="44.87002" lon="4.45139">
        <ele>656.195</ele>
        <time>2011-05-16T13:11:24Z</time>
      </trkpt>
      <trkpt lat="44.86994" lon="4.45151">
        <ele>658.233</ele>
        <time>2011-05-16T13:11:39Z</time>
      </trkpt>
      <trkpt lat="44.86988" lon="4.45162">
        <ele>660.199</ele>
        <time>2011-05-16T13:11:52Z</time>
      </trkpt>
      <trkpt lat="44.86977" lon="4.45172">
        <ele>662.242</ele>
        <time>2011-05-16T13:12:05Z</time>
      </trkpt>
      <trkpt lat="44.86972" lon="4.45178">
        <ele>663.639</ele>
        <time>2011-05-16T13:12:15Z</time>
      </trkpt>
      <trkpt lat="44.86968" lon="4.45186">
        <ele>665.055</ele>
        <time>2011-05-16T13:12:25Z</time>
      </trkpt>
      <trkpt lat="44.86961" lon="4.45193">
        <ele>666.47</ele>
        <time>2011-05-16T13:12:38Z</time>
      </trkpt>
      <trkpt lat="44.86952" lon="4.45196">
        <ele>667.629</ele>
        <time>2011-05-16T13:12:51Z</time>
      </trkpt>
      <trkpt lat="44.86944" lon="4.45198">
        <ele>669.039</ele>
        <time>2011-05-16T13:13:39Z</time>
      </trkpt>
      <trkpt lat="44.86942" lon="4.45198">
        <ele>670.264</ele>
        <time>2011-05-16T13:13:44Z</time>
      </trkpt>
      <trkpt lat="44.86933" lon="4.45198">
        <ele>671.495</ele>
        <time>2011-05-16T13:14:00Z</time>
      </trkpt>
      <trkpt lat="44.86914" lon="4.45201">
        <ele>673.362</ele>
        <time>2011-05-16T13:14:15Z</time>
      </trkpt>
      <trkpt lat="44.86898" lon="4.45202">
        <ele>674.476</ele>
        <time>2011-05-16T13:14:27Z</time>
      </trkpt>
      <trkpt lat="44.86891" lon="4.45202">
        <ele>675.628</ele>
        <time>2011-05-16T13:14:36Z</time>
      </trkpt>
      <trkpt lat="44.86881" lon="4.45201">
        <ele>677.434</ele>
        <time>2011-05-16T13:14:48Z</time>
      </trkpt>
      <trkpt lat="44.86879" lon="4.45199">
        <ele>677.981</ele>
        <time>2011-05-16T13:14:50Z</time>
      </trkpt>
      <trkpt lat="44.86865" lon="4.45187">
        <ele>679.254</ele>
        <time>2011-05-16T13:15:08Z</time>
      </trkpt>
      <trkpt lat="44.8686" lon="4.45185">
        <ele>680.141</ele>
        <time>2011-05-16T13:15:15Z</time>
      </trkpt>
      <trkpt lat="44.86855" lon="4.45191">
        <ele>682.034</ele>
        <time>2011-05-16T13:15:27Z</time>
      </trkpt>
      <trkpt lat="44.86848" lon="4.45205">
        <ele>682.695</ele>
        <time>2011-05-16T13:15:46Z</time>
      </trkpt>
      <trkpt lat="44.86844" lon="4.45214">
        <ele>683.054</ele>
        <time>2011-05-16T13:15:54Z</time>
      </trkpt>
      <trkpt lat="44.8684" lon="4.45228">
        <ele>684.966</ele>
        <time>2011-05-16T13:16:07Z</time>
      </trkpt>
      <trkpt lat="44.86833" lon="4.45242">
        <ele>686.412</ele>
        <time>2011-05-16T13:16:21Z</time>
      </trkpt>
      <trkpt lat="44.86823" lon="4.45249">
        <ele>687.526</ele>
        <time>2011-05-16T13:16:32Z</time>
      </trkpt>
      <trkpt lat="44.86822" lon="4.4525">
        <ele>687.594</ele>
        <time>2011-05-16T13:16:34Z</time>
      </trkpt>
      <trkpt lat="44.86815" lon="4.45254">
        <ele>689.106</ele>
        <time>2011-05-16T13:16:48Z</time>
      </trkpt>
      <trkpt lat="44.86809" lon="4.45261">
        <ele>690.821</ele>
        <time>2011-05-16T13:17:03Z</time>
      </trkpt>
      <trkpt lat="44.86794" lon="4.45265">
        <ele>691.686</ele>
        <time>2011-05-16T13:17:15Z</time>
      </trkpt>
      <trkpt lat="44.86787" lon="4.45268">
        <ele>693.298</ele>
        <time>2011-05-16T13:17:27Z</time>
      </trkpt>
      <trkpt lat="44.86777" lon="4.45274">
        <ele>694.577</ele>
        <time>2011-05-16T13:17:39Z</time>
      </trkpt>
      <trkpt lat="44.8677" lon="4.45278">
        <ele>695.956</ele>
        <time>2011-05-16T13:17:57Z</time>
      </trkpt>
      <trkpt lat="44.86757" lon="4.45282">
        <ele>697.358</ele>
        <time>2011-05-16T13:18:15Z</time>
      </trkpt>
      <trkpt lat="44.86753" lon="4.45282">
        <ele>697.803</ele>
        <time>2011-05-16T13:18:33Z</time>
      </trkpt>
      <trkpt lat="44.86742" lon="4.45297">
        <ele>700.202</ele>
        <time>2011-05-16T13:19:24Z</time>
      </trkpt>
      <trkpt lat="44.86738" lon="4.45302">
        <ele>701.07</ele>
        <time>2011-05-16T13:19:43Z</time>
      </trkpt>
      <trkpt lat="44.86738" lon="4.45307">
        <ele>701.101</ele>
        <time>2011-05-16T13:20:24Z</time>
      </trkpt>
      <trkpt lat="44.86733" lon="4.45319">
        <ele>701.755</ele>
        <time>2011-05-16T13:20:43Z</time>
      </trkpt>
      <trkpt lat="44.86745" lon="4.45333">
        <ele>704.259</ele>
        <time>2011-05-16T13:21:01Z</time>
      </trkpt>
      <trkpt lat="44.8675" lon="4.45333">
        <ele>703.902</ele>
        <time>2011-05-16T13:21:04Z</time>
      </trkpt>
      <trkpt lat="44.86762" lon="4.45335">
        <ele>705.194</ele>
        <time>2011-05-16T13:21:22Z</time>
      </trkpt>
      <trkpt lat="44.86778" lon="4.45343">
        <ele>706.603</ele>
        <time>2011-05-16T13:21:41Z</time>
      </trkpt>
      <trkpt lat="44.86788" lon="4.4535">
        <ele>708.208</ele>
        <time>2011-05-16T13:21:58Z</time>
      </trkpt>
      <trkpt lat="44.86801" lon="4.45355">
        <ele>709.346</ele>
        <time>2011-05-16T13:22:12Z</time>
      </trkpt>
      <trkpt lat="44.8681" lon="4.45364">
        <ele>710.542</ele>
        <time>2011-05-16T13:22:25Z</time>
      </trkpt>
      <trkpt lat="44.86817" lon="4.45367">
        <ele>711.238</ele>
        <time>2011-05-16T13:22:35Z</time>
      </trkpt>
      <trkpt lat="44.86822" lon="4.45369">
        <ele>711.316</ele>
        <time>2011-05-16T13:22:40Z</time>
      </trkpt>
      <trkpt lat="44.86828" lon="4.45372">
        <ele>712.132</ele>
        <time>2011-05-16T13:22:47Z</time>
      </trkpt>
      <trkpt lat="44.86833" lon="4.45376">
        <ele>713.145</ele>
        <time>2011-05-16T13:22:55Z</time>
      </trkpt>
      <trkpt lat="44.86843" lon="4.45392">
        <ele>714.682</ele>
        <time>2011-05-16T13:23:14Z</time>
      </trkpt>
      <trkpt lat="44.86843" lon="4.45402">
        <ele>715.495</ele>
        <time>2011-05-16T13:23:22Z</time>
      </trkpt>
      <trkpt lat="44.86845" lon="4.45413">
        <ele>715.772</ele>
        <time>2011-05-16T13:23:31Z</time>
      </trkpt>
      <trkpt lat="44.86846" lon="4.45415">
        <ele>715.898</ele>
        <time>2011-05-16T13:23:33Z</time>
      </trkpt>
      <trkpt lat="44.8685" lon="4.45419">
        <ele>716.483</ele>
        <time>2011-05-16T13:23:37Z</time>
      </trkpt>
      <trkpt lat="44.86851" lon="4.45423">
        <ele>716.428</ele>
        <time>2011-05-16T13:23:40Z</time>
      </trkpt>
      <trkpt lat="44.86852" lon="4.45428">
        <ele>716.842</ele>
        <time>2011-05-16T13:23:44Z</time>
      </trkpt>
      <trkpt lat="44.86858" lon="4.45437">
        <ele>717.894</ele>
        <time>2011-05-16T13:23:54Z</time>
      </trkpt>
      <trkpt lat="44.86862" lon="4.45445">
        <ele>718.33</ele>
        <time>2011-05-16T13:24:01Z</time>
      </trkpt>
      <trkpt lat="44.86866" lon="4.45459">
        <ele>720.16</ele>
        <time>2011-05-16T13:24:15Z</time>
      </trkpt>
      <trkpt lat="44.8687" lon="4.45473">
        <ele>722.149</ele>
        <time>2011-05-16T13:24:49Z</time>
      </trkpt>
      <trkpt lat="44.86876" lon="4.45491">
        <ele>724.149</ele>
        <time>2011-05-16T13:25:05Z</time>
      </trkpt>
      <trkpt lat="44.86874" lon="4.45497">
        <ele>724.196</ele>
        <time>2011-05-16T13:25:10Z</time>
      </trkpt>
      <trkpt lat="44.8688" lon="4.45505">
        <ele>725.643</ele>
        <time>2011-05-16T13:25:20Z</time>
      </trkpt>
      <trkpt lat="44.86889" lon="4.45508">
        <ele>726.074</ele>
        <time>2011-05-16T13:25:31Z</time>
      </trkpt>
      <trkpt lat="44.86899" lon="4.45501">
        <ele>726.625</ele>
        <time>2011-05-16T13:25:45Z</time>
      </trkpt>
      <trkpt lat="44.86908" lon="4.45495">
        <ele>727.294</ele>
        <time>2011-05-16T13:25:57Z</time>
      </trkpt>
      <trkpt lat="44.86917" lon="4.45489">
        <ele>727.898</ele>
        <time>2011-05-16T13:26:07Z</time>
      </trkpt>
      <trkpt lat="44.86918" lon="4.45487">
        <ele>728.344</ele>
        <time>2011-05-16T13:26:09Z</time>
      </trkpt>
      <trkpt lat="44.86921" lon="4.45484">
        <ele>728.278</ele>
        <time>2011-05-16T13:26:12Z</time>
      </trkpt>
      <trkpt lat="44.86922" lon="4.45482">
        <ele>729.025</ele>
        <time>2011-05-16T13:26:14Z</time>
      </trkpt>
      <trkpt lat="44.86927" lon="4.45479">
        <ele>730.105</ele>
        <time>2011-05-16T13:26:21Z</time>
      </trkpt>
      <trkpt lat="44.86932" lon="4.4548">
        <ele>730.766</ele>
        <time>2011-05-16T13:26:27Z</time>
      </trkpt>
      <trkpt lat="44.86943" lon="4.45489">
        <ele>731.295</ele>
        <time>2011-05-16T13:26:41Z</time>
      </trkpt>
      <trkpt lat="44.86949" lon="4.45502">
        <ele>732.672</ele>
        <time>2011-05-16T13:26:52Z</time>
      </trkpt>
      <trkpt lat="44.86956" lon="4.45521">
        <ele>734.196</ele>
        <time>2011-05-16T13:27:08Z</time>
      </trkpt>
      <trkpt lat="44.86961" lon="4.45538">
        <ele>735.447</ele>
        <time>2011-05-16T13:27:21Z</time>
      </trkpt>
      <trkpt lat="44.86962" lon="4.4555">
        <ele>736.361</ele>
        <time>2011-05-16T13:27:30Z</time>
      </trkpt>
      <trkpt lat="44.86964" lon="4.45564">
        <ele>737.708</ele>
        <time>2011-05-16T13:27:42Z</time>
      </trkpt>
      <trkpt lat="44.86962" lon="4.45568">
        <ele>738.419</ele>
        <time>2011-05-16T13:27:46Z</time>
      </trkpt>
      <trkpt lat="44.86965" lon="4.45581">
        <ele>738.952</ele>
        <time>2011-05-16T13:27:56Z</time>
      </trkpt>
      <trkpt lat="44.86965" lon="4.45595">
        <ele>740.597</ele>
        <time>2011-05-16T13:28:08Z</time>
      </trkpt>
      <trkpt lat="44.86965" lon="4.45599">
        <ele>740.942</ele>
        <time>2011-05-16T13:28:11Z</time>
      </trkpt>
      <trkpt lat="44.86964" lon="4.45614">
        <ele>742.893</ele>
        <time>2011-05-16T13:28:25Z</time>
      </trkpt>
      <trkpt lat="44.86966" lon="4.45627">
        <ele>744.31</ele>
        <time>2011-05-16T13:28:38Z</time>
      </trkpt>
      <trkpt lat="44.86966" lon="4.45634">
        <ele>744.364</ele>
        <time>2011-05-16T13:28:43Z</time>
      </trkpt>
      <trkpt lat="44.86967" lon="4.45639">
        <ele>744.853</ele>
        <time>2011-05-16T13:28:47Z</time>
      </trkpt>
      <trkpt lat="44.86972" lon="4.45656">
        <ele>746.276</ele>
        <time>2011-05-16T13:29:02Z</time>
      </trkpt>
      <trkpt lat="44.8697" lon="4.45666">
        <ele>747.09</ele>
        <time>2011-05-16T13:29:10Z</time>
      </trkpt>
      <trkpt lat="44.86973" lon="4.45673">
        <ele>747.215</ele>
        <time>2011-05-16T13:29:16Z</time>
      </trkpt>
      <trkpt lat="44.86977" lon="4.45682">
        <ele>748.065</ele>
        <time>2011-05-16T13:29:28Z</time>
      </trkpt>
      <trkpt lat="44.86977" lon="4.45686">
        <ele>748.984</ele>
        <time>2011-05-16T13:29:43Z</time>
      </trkpt>
      <trkpt lat="44.86982" lon="4.45692">
        <ele>749.339</ele>
        <time>2011-05-16T13:30:06Z</time>
      </trkpt>
      <trkpt lat="44.86985" lon="4.45696">
        <ele>749.586</ele>
        <time>2011-05-16T13:30:10Z</time>
      </trkpt>
      <trkpt lat="44.86987" lon="4.45698">
        <ele>750.201</ele>
        <time>2011-05-16T13:30:13Z</time>
      </trkpt>
      <trkpt lat="44.86989" lon="4.45701">
        <ele>749.515</ele>
        <time>2011-05-16T13:30:15Z</time>
      </trkpt>
      <trkpt lat="44.86987" lon="4.45711">
        <ele>750.513</ele>
        <time>2011-05-16T13:30:21Z</time>
      </trkpt>
      <trkpt lat="44.86989" lon="4.45719">
        <ele>750.803</ele>
        <time>2011-05-16T13:30:26Z</time>
      </trkpt>
      <trkpt lat="44.86994" lon="4.45728">
        <ele>751.74</ele>
        <time>2011-05-16T13:30:33Z</time>
      </trkpt>
      <trkpt lat="44.87" lon="4.45741">
        <ele>752.95</ele>
        <time>2011-05-16T13:30:43Z</time>
      </trkpt>
      <trkpt lat="44.87001" lon="4.45747">
        <ele>753.289</ele>
        <time>2011-05-16T13:30:47Z</time>
      </trkpt>
      <trkpt lat="44.87003" lon="4.45755">
        <ele>754.57</ele>
        <time>2011-05-16T13:30:54Z</time>
      </trkpt>
      <trkpt lat="44.87006" lon="4.45771">
        <ele>756.087</ele>
        <time>2011-05-16T13:31:07Z</time>
      </trkpt>
      <trkpt lat="44.87013" lon="4.45783">
        <ele>757.218</ele>
        <time>2011-05-16T13:31:19Z</time>
      </trkpt>
      <trkpt lat="44.87019" lon="4.45795">
        <ele>758.406</ele>
        <time>2011-05-16T13:31:38Z</time>
      </trkpt>
      <trkpt lat="44.87019" lon="4.45796">
        <ele>758.41</ele>
        <time>2011-05-16T13:31:39Z</time>
      </trkpt>
      <trkpt lat="44.87031" lon="4.45815">
        <ele>760.061</ele>
        <time>2011-05-16T13:31:55Z</time>
      </trkpt>
      <trkpt lat="44.87033" lon="4.45827">
        <ele>761.686</ele>
        <time>2011-05-16T13:32:11Z</time>
      </trkpt>
      <trkpt lat="44.87029" lon="4.45827">
        <ele>762.562</ele>
        <time>2011-05-16T13:32:18Z</time>
      </trkpt>
      <trkpt lat="44.8702" lon="4.45815">
        <ele>763.415</ele>
        <time>2011-05-16T13:32:32Z</time>
      </trkpt>
      <trkpt lat="44.87013" lon="4.45804">
        <ele>764.286</ele>
        <time>2011-05-16T13:32:41Z</time>
      </trkpt>
      <trkpt lat="44.87003" lon="4.45796">
        <ele>763.919</ele>
        <time>2011-05-16T13:32:52Z</time>
      </trkpt>
      <trkpt lat="44.87002" lon="4.45793">
        <ele>763.212</ele>
        <time>2011-05-16T13:32:55Z</time>
      </trkpt>
      <trkpt lat="44.86993" lon="4.45784">
        <ele>764.443</ele>
        <time>2011-05-16T13:33:09Z</time>
      </trkpt>
      <trkpt lat="44.86988" lon="4.45785">
        <ele>766.076</ele>
        <time>2011-05-16T13:35:08Z</time>
      </trkpt>
      <trkpt lat="44.86988" lon="4.45777">
        <ele>766.14</ele>
        <time>2011-05-16T13:35:15Z</time>
      </trkpt>
      <trkpt lat="44.86976" lon="4.45766">
        <ele>768.565</ele>
        <time>2011-05-16T13:35:30Z</time>
      </trkpt>
      <trkpt lat="44.86971" lon="4.4575">
        <ele>768.766</ele>
        <time>2011-05-16T13:35:39Z</time>
      </trkpt>
      <trkpt lat="44.86961" lon="4.45737">
        <ele>769.998</ele>
        <time>2011-05-16T13:35:55Z</time>
      </trkpt>
      <trkpt lat="44.86955" lon="4.45731">
        <ele>770.309</ele>
        <time>2011-05-16T13:36:07Z</time>
      </trkpt>
      <trkpt lat="44.86945" lon="4.45719">
        <ele>771.365</ele>
        <time>2011-05-16T13:36:20Z</time>
      </trkpt>
      <trkpt lat="44.86934" lon="4.45709">
        <ele>772.996</ele>
        <time>2011-05-16T13:36:35Z</time>
      </trkpt>
      <trkpt lat="44.86922" lon="4.45693">
        <ele>774.192</ele>
        <time>2011-05-16T13:36:51Z</time>
      </trkpt>
      <trkpt lat="44.86912" lon="4.45674">
        <ele>775.896</ele>
        <time>2011-05-16T13:37:11Z</time>
      </trkpt>
      <trkpt lat="44.8691" lon="4.45671">
        <ele>776.537</ele>
        <time>2011-05-16T13:37:41Z</time>
      </trkpt>
      <trkpt lat="44.86899" lon="4.45658">
        <ele>777.999</ele>
        <time>2011-05-16T13:38:01Z</time>
      </trkpt>
      <trkpt lat="44.86887" lon="4.45652">
        <ele>780.31</ele>
        <time>2011-05-16T13:38:17Z</time>
      </trkpt>
      <trkpt lat="44.86884" lon="4.45651">
        <ele>780.724</ele>
        <time>2011-05-16T13:38:20Z</time>
      </trkpt>
      <trkpt lat="44.86869" lon="4.45651">
        <ele>782.814</ele>
        <time>2011-05-16T13:38:36Z</time>
      </trkpt>
      <trkpt lat="44.86852" lon="4.45652">
        <ele>783.97</ele>
        <time>2011-05-16T13:38:53Z</time>
      </trkpt>
      <trkpt lat="44.86839" lon="4.45646">
        <ele>785.329</ele>
        <time>2011-05-16T13:39:09Z</time>
      </trkpt>
      <trkpt lat="44.86821" lon="4.45633">
        <ele>787.7</ele>
        <time>2011-05-16T13:39:30Z</time>
      </trkpt>
      <trkpt lat="44.8681" lon="4.45625">
        <ele>788.679</ele>
        <time>2011-05-16T13:39:49Z</time>
      </trkpt>
      <trkpt lat="44.86792" lon="4.45614">
        <ele>791.192</ele>
        <time>2011-05-16T13:40:09Z</time>
      </trkpt>
      <trkpt lat="44.86776" lon="4.45607">
        <ele>793.266</ele>
        <time>2011-05-16T13:40:30Z</time>
      </trkpt>
      <trkpt lat="44.86766" lon="4.45606">
        <ele>794.623</ele>
        <time>2011-05-16T13:41:07Z</time>
      </trkpt>
      <trkpt lat="44.86757" lon="4.45607">
        <ele>795.446</ele>
        <time>2011-05-16T13:41:15Z</time>
      </trkpt>
      <trkpt lat="44.86752" lon="4.45608">
        <ele>795.596</ele>
        <time>2011-05-16T13:41:31Z</time>
      </trkpt>
      <trkpt lat="44.86751" lon="4.45611">
        <ele>795.555</ele>
        <time>2011-05-16T13:41:38Z</time>
      </trkpt>
      <trkpt lat="44.86748" lon="4.45609">
        <ele>795.598</ele>
        <time>2011-05-16T13:41:41Z</time>
      </trkpt>
      <trkpt lat="44.86723" lon="4.45615">
        <ele>796.597</ele>
        <time>2011-05-16T13:42:05Z</time>
      </trkpt>
      <trkpt lat="44.86714" lon="4.45628">
        <ele>796.058</ele>
        <time>2011-05-16T13:42:23Z</time>
      </trkpt>
      <trkpt lat="44.86704" lon="4.45642">
        <ele>794.85</ele>
        <time>2011-05-16T13:42:39Z</time>
      </trkpt>
      <trkpt lat="44.86685" lon="4.45668">
        <ele>794.416</ele>
        <time>2011-05-16T13:43:04Z</time>
      </trkpt>
      <trkpt lat="44.86672" lon="4.45684">
        <ele>793.348</ele>
        <time>2011-05-16T13:43:23Z</time>
      </trkpt>
      <trkpt lat="44.86651" lon="4.45682">
        <ele>792.895</ele>
        <time>2011-05-16T13:43:45Z</time>
      </trkpt>
      <trkpt lat="44.8664" lon="4.45678">
        <ele>791.808</ele>
        <time>2011-05-16T13:43:59Z</time>
      </trkpt>
      <trkpt lat="44.86608" lon="4.45664">
        <ele>791.199</ele>
        <time>2011-05-16T13:44:28Z</time>
      </trkpt>
      <trkpt lat="44.86591" lon="4.45652">
        <ele>791.799</ele>
        <time>2011-05-16T13:44:44Z</time>
      </trkpt>
      <trkpt lat="44.86574" lon="4.45642">
        <ele>792.756</ele>
        <time>2011-05-16T13:45:01Z</time>
      </trkpt>
      <trkpt lat="44.8656" lon="4.45644">
        <ele>795.028</ele>
        <time>2011-05-16T13:45:21Z</time>
      </trkpt>
      <trkpt lat="44.86561" lon="4.45639">
        <ele>796.119</ele>
        <time>2011-05-16T13:45:29Z</time>
      </trkpt>
      <trkpt lat="44.86551" lon="4.4565">
        <ele>795.616</ele>
        <time>2011-05-16T13:45:46Z</time>
      </trkpt>
      <trkpt lat="44.86523" lon="4.45663">
        <ele>796.436</ele>
        <time>2011-05-16T13:46:14Z</time>
      </trkpt>
      <trkpt lat="44.86497" lon="4.45672">
        <ele>797.419</ele>
        <time>2011-05-16T13:46:39Z</time>
      </trkpt>
      <trkpt lat="44.86472" lon="4.45676">
        <ele>797.573</ele>
        <time>2011-05-16T13:47:02Z</time>
      </trkpt>
      <trkpt lat="44.86453" lon="4.4568">
        <ele>796.866</ele>
        <time>2011-05-16T13:47:21Z</time>
      </trkpt>
      <trkpt lat="44.86425" lon="4.45688">
        <ele>795.834</ele>
        <time>2011-05-16T13:47:48Z</time>
      </trkpt>
      <trkpt lat="44.86398" lon="4.4569">
        <ele>794.603</ele>
        <time>2011-05-16T13:48:13Z</time>
      </trkpt>
      <trkpt lat="44.86382" lon="4.45679">
        <ele>793.003</ele>
        <time>2011-05-16T13:48:30Z</time>
      </trkpt>
      <trkpt lat="44.8638" lon="4.45676">
        <ele>792.699</ele>
        <time>2011-05-16T13:48:33Z</time>
      </trkpt>
      <trkpt lat="44.86366" lon="4.45661">
        <ele>791.775</ele>
        <time>2011-05-16T13:48:49Z</time>
      </trkpt>
      <trkpt lat="44.86362" lon="4.45656">
        <ele>791.479</ele>
        <time>2011-05-16T13:48:54Z</time>
      </trkpt>
      <trkpt lat="44.86358" lon="4.45653">
        <ele>791.459</ele>
        <time>2011-05-16T13:48:58Z</time>
      </trkpt>
      <trkpt lat="44.8634" lon="4.45624">
        <ele>790.659</ele>
        <time>2011-05-16T13:49:20Z</time>
      </trkpt>
      <trkpt lat="44.86326" lon="4.4561">
        <ele>788.865</ele>
        <time>2011-05-16T13:49:35Z</time>
      </trkpt>
      <trkpt lat="44.86311" lon="4.45608">
        <ele>787.81</ele>
        <time>2011-05-16T13:49:51Z</time>
      </trkpt>
      <trkpt lat="44.86291" lon="4.45604">
        <ele>785.901</ele>
        <time>2011-05-16T13:50:08Z</time>
      </trkpt>
      <trkpt lat="44.86289" lon="4.45604">
        <ele>785.94</ele>
        <time>2011-05-16T13:50:09Z</time>
      </trkpt>
      <trkpt lat="44.86268" lon="4.45597">
        <ele>783.893</ele>
        <time>2011-05-16T13:50:29Z</time>
      </trkpt>
      <trkpt lat="44.86255" lon="4.45595">
        <ele>782.793</ele>
        <time>2011-05-16T13:50:42Z</time>
      </trkpt>
      <trkpt lat="44.86245" lon="4.45601">
        <ele>782.764</ele>
        <time>2011-05-16T13:50:53Z</time>
      </trkpt>
      <trkpt lat="44.86242" lon="4.45603">
        <ele>782.398</ele>
        <time>2011-05-16T13:50:56Z</time>
      </trkpt>
      <trkpt lat="44.86236" lon="4.45606">
        <ele>782.929</ele>
        <time>2011-05-16T13:51:02Z</time>
      </trkpt>
      <trkpt lat="44.86231" lon="4.45602">
        <ele>782.899</ele>
        <time>2011-05-16T13:51:19Z</time>
      </trkpt>
      <trkpt lat="44.86229" lon="4.45604">
        <ele>782.777</ele>
        <time>2011-05-16T13:51:28Z</time>
      </trkpt>
      <trkpt lat="44.86227" lon="4.45605">
        <ele>783.379</ele>
        <time>2011-05-16T13:51:30Z</time>
      </trkpt>
      <trkpt lat="44.86216" lon="4.45609">
        <ele>783.822</ele>
        <time>2011-05-16T13:51:47Z</time>
      </trkpt>
      <trkpt lat="44.8621" lon="4.45608">
        <ele>783.495</ele>
        <time>2011-05-16T13:51:52Z</time>
      </trkpt>
      <trkpt lat="44.86206" lon="4.45607">
        <ele>783.096</ele>
        <time>2011-05-16T13:51:56Z</time>
      </trkpt>
      <trkpt lat="44.86185" lon="4.456">
        <ele>780.621</ele>
        <time>2011-05-16T13:52:16Z</time>
      </trkpt>
      <trkpt lat="44.86166" lon="4.4559">
        <ele>778.268</ele>
        <time>2011-05-16T13:52:37Z</time>
      </trkpt>
      <trkpt lat="44.86161" lon="4.45588">
        <ele>777.47</ele>
        <time>2011-05-16T13:52:41Z</time>
      </trkpt>
      <trkpt lat="44.8615" lon="4.4558">
        <ele>776.663</ele>
        <time>2011-05-16T13:52:51Z</time>
      </trkpt>
      <trkpt lat="44.86129" lon="4.45574">
        <ele>773.551</ele>
        <time>2011-05-16T13:53:25Z</time>
      </trkpt>
      <trkpt lat="44.86119" lon="4.45579">
        <ele>773.23</ele>
        <time>2011-05-16T13:53:40Z</time>
      </trkpt>
      <trkpt lat="44.86119" lon="4.45574">
        <ele>773.223</ele>
        <time>2011-05-16T13:54:02Z</time>
      </trkpt>
      <trkpt lat="44.86119" lon="4.4558">
        <ele>773.569</ele>
        <time>2011-05-16T13:54:05Z</time>
      </trkpt>
      <trkpt lat="44.86111" lon="4.456">
        <ele>771.518</ele>
        <time>2011-05-16T13:54:19Z</time>
      </trkpt>
      <trkpt lat="44.86091" lon="4.45635">
        <ele>768.391</ele>
        <time>2011-05-16T13:54:46Z</time>
      </trkpt>
      <trkpt lat="44.86077" lon="4.45635">
        <ele>768.209</ele>
        <time>2011-05-16T13:55:00Z</time>
      </trkpt>
      <trkpt lat="44.86054" lon="4.45616">
        <ele>765.738</ele>
        <time>2011-05-16T13:55:23Z</time>
      </trkpt>
      <trkpt lat="44.8603" lon="4.45601">
        <ele>763.987</ele>
        <time>2011-05-16T13:55:47Z</time>
      </trkpt>
      <trkpt lat="44.86018" lon="4.4559">
        <ele>761.703</ele>
        <time>2011-05-16T13:55:59Z</time>
      </trkpt>
      <trkpt lat="44.86015" lon="4.45586">
        <ele>761.744</ele>
        <time>2011-05-16T13:56:02Z</time>
      </trkpt>
      <trkpt lat="44.86013" lon="4.45583">
        <ele>761.33</ele>
        <time>2011-05-16T13:56:07Z</time>
      </trkpt>
      <trkpt lat="44.85998" lon="4.45553">
        <ele>759.263</ele>
        <time>2011-05-16T13:56:28Z</time>
      </trkpt>
      <trkpt lat="44.85993" lon="4.45538">
        <ele>758.487</ele>
        <time>2011-05-16T13:56:38Z</time>
      </trkpt>
      <trkpt lat="44.85992" lon="4.45535">
        <ele>757.881</ele>
        <time>2011-05-16T13:56:41Z</time>
      </trkpt>
      <trkpt lat="44.85989" lon="4.45529">
        <ele>757.601</ele>
        <time>2011-05-16T13:56:46Z</time>
      </trkpt>
      <trkpt lat="44.85977" lon="4.45512">
        <ele>756.235</ele>
        <time>2011-05-16T13:57:01Z</time>
      </trkpt>
      <trkpt lat="44.85951" lon="4.45509">
        <ele>753.054</ele>
        <time>2011-05-16T13:57:25Z</time>
      </trkpt>
      <trkpt lat="44.85926" lon="4.45505">
        <ele>751.182</ele>
        <time>2011-05-16T13:57:48Z</time>
      </trkpt>
      <trkpt lat="44.85917" lon="4.455">
        <ele>750.384</ele>
        <time>2011-05-16T13:57:57Z</time>
      </trkpt>
      <trkpt lat="44.85911" lon="4.45494">
        <ele>749.647</ele>
        <time>2011-05-16T13:58:04Z</time>
      </trkpt>
      <trkpt lat="44.85906" lon="4.45492">
        <ele>749.042</ele>
        <time>2011-05-16T13:58:08Z</time>
      </trkpt>
      <trkpt lat="44.859" lon="4.4549">
        <ele>749.171</ele>
        <time>2011-05-16T13:58:12Z</time>
      </trkpt>
      <trkpt lat="44.85888" lon="4.45476">
        <ele>748.189</ele>
        <time>2011-05-16T13:58:25Z</time>
      </trkpt>
      <trkpt lat="44.85886" lon="4.45472">
        <ele>747.435</ele>
        <time>2011-05-16T13:58:28Z</time>
      </trkpt>
      <trkpt lat="44.85879" lon="4.4546">
        <ele>746.281</ele>
        <time>2011-05-16T13:58:39Z</time>
      </trkpt>
      <trkpt lat="44.85874" lon="4.45458">
        <ele>746.19</ele>
        <time>2011-05-16T13:58:52Z</time>
      </trkpt>
      <trkpt lat="44.85865" lon="4.45464">
        <ele>746.045</ele>
        <time>2011-05-16T13:59:05Z</time>
      </trkpt>
      <trkpt lat="44.85862" lon="4.45463">
        <ele>746.51</ele>
        <time>2011-05-16T13:59:07Z</time>
      </trkpt>
      <trkpt lat="44.85843" lon="4.45461">
        <ele>745.908</ele>
        <time>2011-05-16T13:59:21Z</time>
      </trkpt>
      <trkpt lat="44.85828" lon="4.45461">
        <ele>745.556</ele>
        <time>2011-05-16T13:59:38Z</time>
      </trkpt>
      <trkpt lat="44.85815" lon="4.45455">
        <ele>744.03</ele>
        <time>2011-05-16T13:59:53Z</time>
      </trkpt>
      <trkpt lat="44.85796" lon="4.45448">
        <ele>744.646</ele>
        <time>2011-05-16T14:00:06Z</time>
      </trkpt>
      <trkpt lat="44.85792" lon="4.4545">
        <ele>744.39</ele>
        <time>2011-05-16T14:00:11Z</time>
      </trkpt>
      <trkpt lat="44.85788" lon="4.4545">
        <ele>744.002</ele>
        <time>2011-05-16T14:00:13Z</time>
      </trkpt>
      <trkpt lat="44.85785" lon="4.45451">
        <ele>743.932</ele>
        <time>2011-05-16T14:00:16Z</time>
      </trkpt>
      <trkpt lat="44.85773" lon="4.45459">
        <ele>743.466</ele>
        <time>2011-05-16T14:00:29Z</time>
      </trkpt>
      <trkpt lat="44.8576" lon="4.45473">
        <ele>742.38</ele>
        <time>2011-05-16T14:00:44Z</time>
      </trkpt>
      <trkpt lat="44.85759" lon="4.45477">
        <ele>742.357</ele>
        <time>2011-05-16T14:00:47Z</time>
      </trkpt>
      <trkpt lat="44.85758" lon="4.45483">
        <ele>743.228</ele>
        <time>2011-05-16T14:01:08Z</time>
      </trkpt>
      <trkpt lat="44.85758" lon="4.45493">
        <ele>743.214</ele>
        <time>2011-05-16T14:01:19Z</time>
      </trkpt>
      <trkpt lat="44.85759" lon="4.45496">
        <ele>743.968</ele>
        <time>2011-05-16T14:01:22Z</time>
      </trkpt>
      <trkpt lat="44.85773" lon="4.45504">
        <ele>744.795</ele>
        <time>2011-05-16T14:01:34Z</time>
      </trkpt>
      <trkpt lat="44.85784" lon="4.45519">
        <ele>745.164</ele>
        <time>2011-05-16T14:01:47Z</time>
      </trkpt>
      <trkpt lat="44.85786" lon="4.45523">
        <ele>745.208</ele>
        <time>2011-05-16T14:01:50Z</time>
      </trkpt>
      <trkpt lat="44.85786" lon="4.4553">
        <ele>745.207</ele>
        <time>2011-05-16T14:01:54Z</time>
      </trkpt>
      <trkpt lat="44.85787" lon="4.45533">
        <ele>745.293</ele>
        <time>2011-05-16T14:01:56Z</time>
      </trkpt>
      <trkpt lat="44.85792" lon="4.4554">
        <ele>745.649</ele>
        <time>2011-05-16T14:02:01Z</time>
      </trkpt>
      <trkpt lat="44.85797" lon="4.45556">
        <ele>745.725</ele>
        <time>2011-05-16T14:02:13Z</time>
      </trkpt>
      <trkpt lat="44.85797" lon="4.45566">
        <ele>747.228</ele>
        <time>2011-05-16T14:02:23Z</time>
      </trkpt>
      <trkpt lat="44.85808" lon="4.45579">
        <ele>747.802</ele>
        <time>2011-05-16T14:02:38Z</time>
      </trkpt>
      <trkpt lat="44.8581" lon="4.45581">
        <ele>748.194</ele>
        <time>2011-05-16T14:02:41Z</time>
      </trkpt>
      <trkpt lat="44.85813" lon="4.45598">
        <ele>750.086</ele>
        <time>2011-05-16T14:02:54Z</time>
      </trkpt>
      <trkpt lat="44.85815" lon="4.45602">
        <ele>750.23</ele>
        <time>2011-05-16T14:02:58Z</time>
      </trkpt>
      <trkpt lat="44.85817" lon="4.45613">
        <ele>750.894</ele>
        <time>2011-05-16T14:03:06Z</time>
      </trkpt>
      <trkpt lat="44.85819" lon="4.45638">
        <ele>752.588</ele>
        <time>2011-05-16T14:03:24Z</time>
      </trkpt>
      <trkpt lat="44.85825" lon="4.45657">
        <ele>752.849</ele>
        <time>2011-05-16T14:03:38Z</time>
      </trkpt>
      <trkpt lat="44.85825" lon="4.45664">
        <ele>753.668</ele>
        <time>2011-05-16T14:03:44Z</time>
      </trkpt>
      <trkpt lat="44.85829" lon="4.4568">
        <ele>755.075</ele>
        <time>2011-05-16T14:03:58Z</time>
      </trkpt>
      <trkpt lat="44.85834" lon="4.45696">
        <ele>756.209</ele>
        <time>2011-05-16T14:04:12Z</time>
      </trkpt>
      <trkpt lat="44.85837" lon="4.45718">
        <ele>758.193</ele>
        <time>2011-05-16T14:04:29Z</time>
      </trkpt>
      <trkpt lat="44.85839" lon="4.4573">
        <ele>757.952</ele>
        <time>2011-05-16T14:04:41Z</time>
      </trkpt>
      <trkpt lat="44.85838" lon="4.45745">
        <ele>758.432</ele>
        <time>2011-05-16T14:04:54Z</time>
      </trkpt>
      <trkpt lat="44.85838" lon="4.4575">
        <ele>758.654</ele>
        <time>2011-05-16T14:05:00Z</time>
      </trkpt>
      <trkpt lat="44.85834" lon="4.45763">
        <ele>759.876</ele>
        <time>2011-05-16T14:05:11Z</time>
      </trkpt>
      <trkpt lat="44.85827" lon="4.45777">
        <ele>761.356</ele>
        <time>2011-05-16T14:05:25Z</time>
      </trkpt>
      <trkpt lat="44.8582" lon="4.45792">
        <ele>762.34</ele>
        <time>2011-05-16T14:05:44Z</time>
      </trkpt>
      <trkpt lat="44.85815" lon="4.45811">
        <ele>764.196</ele>
        <time>2011-05-16T14:05:57Z</time>
      </trkpt>
      <trkpt lat="44.85814" lon="4.45829">
        <ele>765.998</ele>
        <time>2011-05-16T14:06:13Z</time>
      </trkpt>
      <trkpt lat="44.85806" lon="4.45851">
        <ele>767.926</ele>
        <time>2011-05-16T14:06:31Z</time>
      </trkpt>
      <trkpt lat="44.85801" lon="4.45855">
        <ele>768.832</ele>
        <time>2011-05-16T14:06:38Z</time>
      </trkpt>
      <trkpt lat="44.85798" lon="4.45859">
        <ele>769.769</ele>
        <time>2011-05-16T14:06:44Z</time>
      </trkpt>
      <trkpt lat="44.8579" lon="4.45846">
        <ele>770.598</ele>
        <time>2011-05-16T14:06:59Z</time>
      </trkpt>
      <trkpt lat="44.85788" lon="4.45844">
        <ele>770.915</ele>
        <time>2011-05-16T14:07:01Z</time>
      </trkpt>
      <trkpt lat="44.85783" lon="4.45831">
        <ele>771.311</ele>
        <time>2011-05-16T14:07:13Z</time>
      </trkpt>
      <trkpt lat="44.85778" lon="4.45819">
        <ele>772.493</ele>
        <time>2011-05-16T14:07:27Z</time>
      </trkpt>
      <trkpt lat="44.85775" lon="4.45809">
        <ele>773.301</ele>
        <time>2011-05-16T14:07:38Z</time>
      </trkpt>
      <trkpt lat="44.85776" lon="4.458">
        <ele>774.051</ele>
        <time>2011-05-16T14:07:43Z</time>
      </trkpt>
      <trkpt lat="44.85781" lon="4.45789">
        <ele>774.92</ele>
        <time>2011-05-16T14:07:56Z</time>
      </trkpt>
      <trkpt lat="44.85785" lon="4.45779">
        <ele>775.006</ele>
        <time>2011-05-16T14:08:07Z</time>
      </trkpt>
      <trkpt lat="44.85785" lon="4.45773">
        <ele>775.686</ele>
        <time>2011-05-16T14:08:12Z</time>
      </trkpt>
      <trkpt lat="44.85787" lon="4.45768">
        <ele>775.606</ele>
        <time>2011-05-16T14:08:15Z</time>
      </trkpt>
      <trkpt lat="44.85788" lon="4.45757">
        <ele>776.337</ele>
        <time>2011-05-16T14:08:23Z</time>
      </trkpt>
      <trkpt lat="44.85789" lon="4.45747">
        <ele>777.242</ele>
        <time>2011-05-16T14:08:38Z</time>
      </trkpt>
      <trkpt lat="44.8579" lon="4.45738">
        <ele>777.92</ele>
        <time>2011-05-16T14:08:44Z</time>
      </trkpt>
      <trkpt lat="44.85791" lon="4.45735">
        <ele>777.654</ele>
        <time>2011-05-16T14:08:47Z</time>
      </trkpt>
      <trkpt lat="44.85785" lon="4.45726">
        <ele>778.484</ele>
        <time>2011-05-16T14:08:53Z</time>
      </trkpt>
      <trkpt lat="44.85785" lon="4.4572">
        <ele>778.916</ele>
        <time>2011-05-16T14:08:57Z</time>
      </trkpt>
      <trkpt lat="44.85783" lon="4.45711">
        <ele>779.544</ele>
        <time>2011-05-16T14:09:03Z</time>
      </trkpt>
      <trkpt lat="44.85785" lon="4.45706">
        <ele>780.204</ele>
        <time>2011-05-16T14:09:08Z</time>
      </trkpt>
      <trkpt lat="44.85787" lon="4.45702">
        <ele>781.022</ele>
        <time>2011-05-16T14:09:15Z</time>
      </trkpt>
      <trkpt lat="44.85781" lon="4.45695">
        <ele>781.998</ele>
        <time>2011-05-16T14:09:23Z</time>
      </trkpt>
      <trkpt lat="44.8577" lon="4.45685">
        <ele>782.882</ele>
        <time>2011-05-16T14:09:35Z</time>
      </trkpt>
      <trkpt lat="44.85764" lon="4.45676">
        <ele>783.47</ele>
        <time>2011-05-16T14:09:44Z</time>
      </trkpt>
      <trkpt lat="44.85755" lon="4.45665">
        <ele>784.485</ele>
        <time>2011-05-16T14:09:59Z</time>
      </trkpt>
      <trkpt lat="44.85752" lon="4.45661">
        <ele>785.046</ele>
        <time>2011-05-16T14:10:04Z</time>
      </trkpt>
      <trkpt lat="44.8575" lon="4.45656">
        <ele>785.806</ele>
        <time>2011-05-16T14:10:08Z</time>
      </trkpt>
      <trkpt lat="44.85742" lon="4.45649">
        <ele>786.142</ele>
        <time>2011-05-16T14:10:20Z</time>
      </trkpt>
      <trkpt lat="44.8574" lon="4.45646">
        <ele>787.118</ele>
        <time>2011-05-16T14:10:24Z</time>
      </trkpt>
      <trkpt lat="44.85738" lon="4.45641">
        <ele>787.74</ele>
        <time>2011-05-16T14:10:30Z</time>
      </trkpt>
      <trkpt lat="44.85733" lon="4.45637">
        <ele>788.171</ele>
        <time>2011-05-16T14:10:35Z</time>
      </trkpt>
      <trkpt lat="44.85728" lon="4.45631">
        <ele>788.894</ele>
        <time>2011-05-16T14:10:44Z</time>
      </trkpt>
      <trkpt lat="44.85717" lon="4.45619">
        <ele>789.987</ele>
        <time>2011-05-16T14:10:58Z</time>
      </trkpt>
      <trkpt lat="44.85708" lon="4.45609">
        <ele>791.35</ele>
        <time>2011-05-16T14:11:11Z</time>
      </trkpt>
      <trkpt lat="44.85691" lon="4.45602">
        <ele>792.588</ele>
        <time>2011-05-16T14:11:23Z</time>
      </trkpt>
      <trkpt lat="44.85685" lon="4.45598">
        <ele>793.043</ele>
        <time>2011-05-16T14:11:30Z</time>
      </trkpt>
      <trkpt lat="44.85682" lon="4.45595">
        <ele>793.843</ele>
        <time>2011-05-16T14:11:39Z</time>
      </trkpt>
      <trkpt lat="44.85677" lon="4.4559">
        <ele>794.771</ele>
        <time>2011-05-16T14:11:49Z</time>
      </trkpt>
      <trkpt lat="44.85667" lon="4.45581">
        <ele>795.393</ele>
        <time>2011-05-16T14:11:59Z</time>
      </trkpt>
      <trkpt lat="44.85661" lon="4.45579">
        <ele>796.857</ele>
        <time>2011-05-16T14:12:12Z</time>
      </trkpt>
      <trkpt lat="44.85657" lon="4.45581">
        <ele>798.064</ele>
        <time>2011-05-16T14:12:23Z</time>
      </trkpt>
      <trkpt lat="44.85646" lon="4.45572">
        <ele>798.647</ele>
        <time>2011-05-16T14:12:32Z</time>
      </trkpt>
      <trkpt lat="44.85639" lon="4.45559">
        <ele>799.571</ele>
        <time>2011-05-16T14:12:42Z</time>
      </trkpt>
      <trkpt lat="44.85635" lon="4.45554">
        <ele>799.414</ele>
        <time>2011-05-16T14:12:46Z</time>
      </trkpt>
      <trkpt lat="44.85628" lon="4.45548">
        <ele>799.401</ele>
        <time>2011-05-16T14:12:51Z</time>
      </trkpt>
      <trkpt lat="44.85618" lon="4.45541">
        <ele>800.341</ele>
        <time>2011-05-16T14:13:02Z</time>
      </trkpt>
      <trkpt lat="44.85611" lon="4.45538">
        <ele>802.038</ele>
        <time>2011-05-16T14:13:14Z</time>
      </trkpt>
      <trkpt lat="44.85609" lon="4.45534">
        <ele>802.342</ele>
        <time>2011-05-16T14:13:18Z</time>
      </trkpt>
      <trkpt lat="44.85601" lon="4.45532">
        <ele>803.398</ele>
        <time>2011-05-16T14:13:31Z</time>
      </trkpt>
      <trkpt lat="44.85589" lon="4.45531">
        <ele>803.802</ele>
        <time>2011-05-16T14:13:46Z</time>
      </trkpt>
      <trkpt lat="44.85585" lon="4.45537">
        <ele>805.611</ele>
        <time>2011-05-16T14:13:59Z</time>
      </trkpt>
      <trkpt lat="44.85582" lon="4.45538">
        <ele>805.931</ele>
        <time>2011-05-16T14:14:03Z</time>
      </trkpt>
      <trkpt lat="44.85577" lon="4.45536">
        <ele>805.65</ele>
        <time>2011-05-16T14:14:05Z</time>
      </trkpt>
      <trkpt lat="44.85568" lon="4.4554">
        <ele>806.257</ele>
        <time>2011-05-16T14:14:16Z</time>
      </trkpt>
      <trkpt lat="44.85563" lon="4.4554">
        <ele>806.445</ele>
        <time>2011-05-16T14:14:20Z</time>
      </trkpt>
      <trkpt lat="44.85556" lon="4.4554">
        <ele>807.201</ele>
        <time>2011-05-16T14:14:26Z</time>
      </trkpt>
      <trkpt lat="44.85549" lon="4.4554">
        <ele>807.777</ele>
        <time>2011-05-16T14:14:34Z</time>
      </trkpt>
      <trkpt lat="44.85539" lon="4.45542">
        <ele>807.486</ele>
        <time>2011-05-16T14:14:47Z</time>
      </trkpt>
      <trkpt lat="44.85529" lon="4.45546">
        <ele>809.21</ele>
        <time>2011-05-16T14:14:58Z</time>
      </trkpt>
      <trkpt lat="44.85526" lon="4.45545">
        <ele>810.064</ele>
        <time>2011-05-16T14:15:02Z</time>
      </trkpt>
      <trkpt lat="44.85518" lon="4.45542">
        <ele>810.35</ele>
        <time>2011-05-16T14:15:08Z</time>
      </trkpt>
      <trkpt lat="44.85504" lon="4.45552">
        <ele>811.506</ele>
        <time>2011-05-16T14:15:24Z</time>
      </trkpt>
      <trkpt lat="44.85501" lon="4.45556">
        <ele>811.167</ele>
        <time>2011-05-16T14:15:30Z</time>
      </trkpt>
      <trkpt lat="44.85488" lon="4.4556">
        <ele>813.459</ele>
        <time>2011-05-16T14:15:42Z</time>
      </trkpt>
      <trkpt lat="44.85481" lon="4.45562">
        <ele>813.785</ele>
        <time>2011-05-16T14:15:55Z</time>
      </trkpt>
      <trkpt lat="44.85473" lon="4.45564">
        <ele>814.581</ele>
        <time>2011-05-16T14:16:07Z</time>
      </trkpt>
      <trkpt lat="44.85469" lon="4.45573">
        <ele>815.38</ele>
        <time>2011-05-16T14:16:19Z</time>
      </trkpt>
      <trkpt lat="44.85454" lon="4.4557">
        <ele>817.164</ele>
        <time>2011-05-16T14:16:32Z</time>
      </trkpt>
      <trkpt lat="44.85447" lon="4.45566">
        <ele>817.5</ele>
        <time>2011-05-16T14:16:34Z</time>
      </trkpt>
      <trkpt lat="44.85437" lon="4.45569">
        <ele>818.819</ele>
        <time>2011-05-16T14:16:46Z</time>
      </trkpt>
      <trkpt lat="44.85427" lon="4.45572">
        <ele>820.966</ele>
        <time>2011-05-16T14:16:59Z</time>
      </trkpt>
      <trkpt lat="44.85412" lon="4.45577">
        <ele>821.843</ele>
        <time>2011-05-16T14:17:13Z</time>
      </trkpt>
      <trkpt lat="44.85396" lon="4.45581">
        <ele>823.288</ele>
        <time>2011-05-16T14:17:32Z</time>
      </trkpt>
      <trkpt lat="44.85385" lon="4.45586">
        <ele>825.395</ele>
        <time>2011-05-16T14:17:49Z</time>
      </trkpt>
      <trkpt lat="44.85378" lon="4.45592">
        <ele>825.858</ele>
        <time>2011-05-16T14:18:01Z</time>
      </trkpt>
      <trkpt lat="44.85362" lon="4.45604">
        <ele>827.88</ele>
        <time>2011-05-16T14:18:22Z</time>
      </trkpt>
      <trkpt lat="44.85356" lon="4.45604">
        <ele>828.116</ele>
        <time>2011-05-16T14:18:25Z</time>
      </trkpt>
      <trkpt lat="44.85351" lon="4.45612">
        <ele>828.722</ele>
        <time>2011-05-16T14:18:34Z</time>
      </trkpt>
      <trkpt lat="44.85346" lon="4.45618">
        <ele>828.897</ele>
        <time>2011-05-16T14:18:54Z</time>
      </trkpt>
      <trkpt lat="44.85343" lon="4.45619">
        <ele>828.908</ele>
        <time>2011-05-16T14:19:06Z</time>
      </trkpt>
      <trkpt lat="44.85341" lon="4.45619">
        <ele>829.627</ele>
        <time>2011-05-16T14:19:19Z</time>
      </trkpt>
      <trkpt lat="44.85346" lon="4.45618">
        <ele>830.235</ele>
        <time>2011-05-16T14:19:54Z</time>
      </trkpt>
      <trkpt lat="44.85349" lon="4.45617">
        <ele>830.475</ele>
        <time>2011-05-16T14:19:56Z</time>
      </trkpt>
      <trkpt lat="44.85364" lon="4.45614">
        <ele>831.735</ele>
        <time>2011-05-16T14:20:09Z</time>
      </trkpt>
      <trkpt lat="44.85376" lon="4.45616">
        <ele>832.083</ele>
        <time>2011-05-16T14:20:19Z</time>
      </trkpt>
      <trkpt lat="44.85386" lon="4.45616">
        <ele>832.985</ele>
        <time>2011-05-16T14:20:28Z</time>
      </trkpt>
      <trkpt lat="44.85396" lon="4.45615">
        <ele>833.56</ele>
        <time>2011-05-16T14:20:39Z</time>
      </trkpt>
      <trkpt lat="44.85407" lon="4.45619">
        <ele>834.733</ele>
        <time>2011-05-16T14:20:50Z</time>
      </trkpt>
      <trkpt lat="44.8542" lon="4.45623">
        <ele>835.548</ele>
        <time>2011-05-16T14:21:03Z</time>
      </trkpt>
      <trkpt lat="44.8543" lon="4.45629">
        <ele>836.109</ele>
        <time>2011-05-16T14:21:12Z</time>
      </trkpt>
      <trkpt lat="44.85435" lon="4.4563">
        <ele>836.533</ele>
        <time>2011-05-16T14:21:19Z</time>
      </trkpt>
      <trkpt lat="44.85444" lon="4.4563">
        <ele>837.754</ele>
        <time>2011-05-16T14:21:31Z</time>
      </trkpt>
      <trkpt lat="44.8546" lon="4.45637">
        <ele>839.461</ele>
        <time>2011-05-16T14:21:44Z</time>
      </trkpt>
      <trkpt lat="44.85468" lon="4.45637">
        <ele>840.12</ele>
        <time>2011-05-16T14:21:55Z</time>
      </trkpt>
      <trkpt lat="44.85482" lon="4.45641">
        <ele>841.16</ele>
        <time>2011-05-16T14:22:08Z</time>
      </trkpt>
      <trkpt lat="44.85498" lon="4.45644">
        <ele>841.453</ele>
        <time>2011-05-16T14:22:21Z</time>
      </trkpt>
      <trkpt lat="44.85508" lon="4.45642">
        <ele>843.261</ele>
        <time>2011-05-16T14:22:33Z</time>
      </trkpt>
      <trkpt lat="44.85522" lon="4.45643">
        <ele>843.62</ele>
        <time>2011-05-16T14:22:45Z</time>
      </trkpt>
      <trkpt lat="44.85532" lon="4.45644">
        <ele>844.737</ele>
        <time>2011-05-16T14:22:57Z</time>
      </trkpt>
      <trkpt lat="44.85542" lon="4.45644">
        <ele>845.232</ele>
        <time>2011-05-16T14:23:07Z</time>
      </trkpt>
      <trkpt lat="44.85551" lon="4.45649">
        <ele>845.45</ele>
        <time>2011-05-16T14:23:17Z</time>
      </trkpt>
      <trkpt lat="44.85563" lon="4.45658">
        <ele>846.441</ele>
        <time>2011-05-16T14:23:31Z</time>
      </trkpt>
      <trkpt lat="44.85575" lon="4.45667">
        <ele>847.455</ele>
        <time>2011-05-16T14:23:44Z</time>
      </trkpt>
      <trkpt lat="44.85589" lon="4.45681">
        <ele>848.528</ele>
        <time>2011-05-16T14:23:58Z</time>
      </trkpt>
      <trkpt lat="44.85597" lon="4.45698">
        <ele>849.08</ele>
        <time>2011-05-16T14:24:12Z</time>
      </trkpt>
      <trkpt lat="44.85605" lon="4.45713">
        <ele>849.776</ele>
        <time>2011-05-16T14:24:24Z</time>
      </trkpt>
      <trkpt lat="44.85607" lon="4.45721">
        <ele>850.145</ele>
        <time>2011-05-16T14:24:30Z</time>
      </trkpt>
      <trkpt lat="44.85607" lon="4.45725">
        <ele>850.256</ele>
        <time>2011-05-16T14:24:33Z</time>
      </trkpt>
      <trkpt lat="44.85606" lon="4.45733">
        <ele>850.276</ele>
        <time>2011-05-16T14:24:38Z</time>
      </trkpt>
      <trkpt lat="44.85606" lon="4.45738">
        <ele>850.225</ele>
        <time>2011-05-16T14:24:41Z</time>
      </trkpt>
      <trkpt lat="44.85606" lon="4.45743">
        <ele>850.543</ele>
        <time>2011-05-16T14:24:44Z</time>
      </trkpt>
      <trkpt lat="44.85604" lon="4.45753">
        <ele>851.122</ele>
        <time>2011-05-16T14:24:53Z</time>
      </trkpt>
      <trkpt lat="44.85601" lon="4.45746">
        <ele>852.691</ele>
        <time>2011-05-16T14:25:03Z</time>
      </trkpt>
      <trkpt lat="44.85599" lon="4.45743">
        <ele>853.272</ele>
        <time>2011-05-16T14:25:05Z</time>
      </trkpt>
      <trkpt lat="44.8559" lon="4.45728">
        <ele>854.078</ele>
        <time>2011-05-16T14:25:18Z</time>
      </trkpt>
      <trkpt lat="44.85586" lon="4.45717">
        <ele>855.825</ele>
        <time>2011-05-16T14:25:33Z</time>
      </trkpt>
      <trkpt lat="44.85579" lon="4.4571">
        <ele>857.444</ele>
        <time>2011-05-16T14:25:47Z</time>
      </trkpt>
      <trkpt lat="44.85564" lon="4.45705">
        <ele>858.582</ele>
        <time>2011-05-16T14:26:04Z</time>
      </trkpt>
      <trkpt lat="44.85558" lon="4.45707">
        <ele>859.473</ele>
        <time>2011-05-16T14:26:13Z</time>
      </trkpt>
      <trkpt lat="44.85548" lon="4.45708">
        <ele>861.149</ele>
        <time>2011-05-16T14:26:27Z</time>
      </trkpt>
      <trkpt lat="44.85534" lon="4.45711">
        <ele>863.079</ele>
        <time>2011-05-16T14:26:43Z</time>
      </trkpt>
      <trkpt lat="44.85526" lon="4.45715">
        <ele>863.689</ele>
        <time>2011-05-16T14:26:55Z</time>
      </trkpt>
      <trkpt lat="44.85518" lon="4.45717">
        <ele>864.377</ele>
        <time>2011-05-16T14:27:02Z</time>
      </trkpt>
      <trkpt lat="44.85521" lon="4.45724">
        <ele>865.445</ele>
        <time>2011-05-16T14:27:06Z</time>
      </trkpt>
      <trkpt lat="44.85518" lon="4.45723">
        <ele>865.445</ele>
        <time>2011-05-16T14:27:07Z</time>
      </trkpt>
      <trkpt lat="44.85513" lon="4.45724">
        <ele>865.446</ele>
        <time>2011-05-16T14:27:11Z</time>
      </trkpt>
      <trkpt lat="44.85497" lon="4.45729">
        <ele>867.378</ele>
        <time>2011-05-16T14:27:27Z</time>
      </trkpt>
      <trkpt lat="44.85476" lon="4.45734">
        <ele>869.594</ele>
        <time>2011-05-16T14:27:47Z</time>
      </trkpt>
      <trkpt lat="44.85462" lon="4.45738">
        <ele>871.409</ele>
        <time>2011-05-16T14:28:04Z</time>
      </trkpt>
      <trkpt lat="44.85466" lon="4.45747">
        <ele>872.602</ele>
        <time>2011-05-16T14:28:16Z</time>
      </trkpt>
      <trkpt lat="44.8548" lon="4.45747">
        <ele>873.817</ele>
        <time>2011-05-16T14:28:31Z</time>
      </trkpt>
      <trkpt lat="44.85498" lon="4.45751">
        <ele>874.579</ele>
        <time>2011-05-16T14:28:48Z</time>
      </trkpt>
      <trkpt lat="44.85508" lon="4.45754">
        <ele>875.3</ele>
        <time>2011-05-16T14:28:58Z</time>
      </trkpt>
      <trkpt lat="44.85513" lon="4.45753">
        <ele>875.838</ele>
        <time>2011-05-16T14:29:04Z</time>
      </trkpt>
      <trkpt lat="44.85521" lon="4.45754">
        <ele>876.282</ele>
        <time>2011-05-16T14:29:14Z</time>
      </trkpt>
      <trkpt lat="44.85531" lon="4.45759">
        <ele>877.218</ele>
        <time>2011-05-16T14:29:26Z</time>
      </trkpt>
      <trkpt lat="44.8553" lon="4.45769">
        <ele>878.021</ele>
        <time>2011-05-16T14:29:40Z</time>
      </trkpt>
      <trkpt lat="44.8552" lon="4.45769">
        <ele>878.791</ele>
        <time>2011-05-16T14:29:52Z</time>
      </trkpt>
      <trkpt lat="44.85505" lon="4.45774">
        <ele>880.785</ele>
        <time>2011-05-16T14:30:09Z</time>
      </trkpt>
      <trkpt lat="44.85491" lon="4.4578">
        <ele>882.273</ele>
        <time>2011-05-16T14:30:26Z</time>
      </trkpt>
      <trkpt lat="44.85473" lon="4.45786">
        <ele>883.781</ele>
        <time>2011-05-16T14:30:46Z</time>
      </trkpt>
      <trkpt lat="44.85454" lon="4.45793">
        <ele>886.297</ele>
        <time>2011-05-16T14:31:10Z</time>
      </trkpt>
      <trkpt lat="44.85434" lon="4.45803">
        <ele>888.214</ele>
        <time>2011-05-16T14:31:33Z</time>
      </trkpt>
      <trkpt lat="44.85419" lon="4.45811">
        <ele>889.289</ele>
        <time>2011-05-16T14:31:51Z</time>
      </trkpt>
      <trkpt lat="44.85417" lon="4.45813">
        <ele>889.594</ele>
        <time>2011-05-16T14:31:54Z</time>
      </trkpt>
      <trkpt lat="44.85413" lon="4.45814">
        <ele>889.686</ele>
        <time>2011-05-16T14:31:58Z</time>
      </trkpt>
      <trkpt lat="44.85399" lon="4.45824">
        <ele>891.335</ele>
        <time>2011-05-16T14:32:14Z</time>
      </trkpt>
      <trkpt lat="44.85395" lon="4.45827">
        <ele>891.853</ele>
        <time>2011-05-16T14:32:21Z</time>
      </trkpt>
      <trkpt lat="44.85391" lon="4.45832">
        <ele>891.958</ele>
        <time>2011-05-16T14:32:29Z</time>
      </trkpt>
      <trkpt lat="44.85397" lon="4.45833">
        <ele>892.41</ele>
        <time>2011-05-16T14:32:36Z</time>
      </trkpt>
      <trkpt lat="44.85415" lon="4.45832">
        <ele>893.955</ele>
        <time>2011-05-16T14:32:54Z</time>
      </trkpt>
      <trkpt lat="44.85429" lon="4.45833">
        <ele>895.652</ele>
        <time>2011-05-16T14:33:08Z</time>
      </trkpt>
      <trkpt lat="44.85441" lon="4.45836">
        <ele>896.73</ele>
        <time>2011-05-16T14:33:25Z</time>
      </trkpt>
      <trkpt lat="44.85462" lon="4.45843">
        <ele>898.209</ele>
        <time>2011-05-16T14:33:45Z</time>
      </trkpt>
      <trkpt lat="44.85474" lon="4.45856">
        <ele>899.3</ele>
        <time>2011-05-16T14:34:04Z</time>
      </trkpt>
      <trkpt lat="44.85475" lon="4.4587">
        <ele>900.39</ele>
        <time>2011-05-16T14:34:16Z</time>
      </trkpt>
      <trkpt lat="44.85474" lon="4.45874">
        <ele>900.579</ele>
        <time>2011-05-16T14:34:19Z</time>
      </trkpt>
      <trkpt lat="44.8547" lon="4.45897">
        <ele>902.031</ele>
        <time>2011-05-16T14:34:38Z</time>
      </trkpt>
      <trkpt lat="44.85465" lon="4.45917">
        <ele>903.131</ele>
        <time>2011-05-16T14:34:57Z</time>
      </trkpt>
      <trkpt lat="44.85464" lon="4.45928">
        <ele>904.131</ele>
        <time>2011-05-16T14:35:04Z</time>
      </trkpt>
      <trkpt lat="44.85463" lon="4.45959">
        <ele>905.457</ele>
        <time>2011-05-16T14:35:28Z</time>
      </trkpt>
      <trkpt lat="44.85464" lon="4.45983">
        <ele>906.986</ele>
        <time>2011-05-16T14:35:47Z</time>
      </trkpt>
      <trkpt lat="44.85465" lon="4.45993">
        <ele>907.901</ele>
        <time>2011-05-16T14:35:55Z</time>
      </trkpt>
      <trkpt lat="44.85471" lon="4.46018">
        <ele>910.197</ele>
        <time>2011-05-16T14:36:16Z</time>
      </trkpt>
      <trkpt lat="44.85471" lon="4.46038">
        <ele>912.713</ele>
        <time>2011-05-16T14:36:35Z</time>
      </trkpt>
      <trkpt lat="44.85465" lon="4.4603">
        <ele>913.298</ele>
        <time>2011-05-16T14:36:49Z</time>
      </trkpt>
      <trkpt lat="44.8546" lon="4.46022">
        <ele>914.067</ele>
        <time>2011-05-16T14:37:03Z</time>
      </trkpt>
      <trkpt lat="44.85457" lon="4.46019">
        <ele>914.389</ele>
        <time>2011-05-16T14:37:07Z</time>
      </trkpt>
      <trkpt lat="44.85444" lon="4.46003">
        <ele>914.9</ele>
        <time>2011-05-16T14:37:27Z</time>
      </trkpt>
      <trkpt lat="44.85434" lon="4.45993">
        <ele>916.207</ele>
        <time>2011-05-16T14:37:43Z</time>
      </trkpt>
      <trkpt lat="44.85425" lon="4.45982">
        <ele>917.49</ele>
        <time>2011-05-16T14:37:57Z</time>
      </trkpt>
      <trkpt lat="44.85418" lon="4.45981">
        <ele>918.957</ele>
        <time>2011-05-16T14:38:07Z</time>
      </trkpt>
      <trkpt lat="44.85414" lon="4.45999">
        <ele>920.583</ele>
        <time>2011-05-16T14:38:21Z</time>
      </trkpt>
      <trkpt lat="44.85411" lon="4.46017">
        <ele>921.607</ele>
        <time>2011-05-16T14:38:34Z</time>
      </trkpt>
      <trkpt lat="44.85406" lon="4.46035">
        <ele>921.586</ele>
        <time>2011-05-16T14:38:48Z</time>
      </trkpt>
      <trkpt lat="44.8541" lon="4.46045">
        <ele>922.584</ele>
        <time>2011-05-16T14:39:06Z</time>
      </trkpt>
      <trkpt lat="44.85412" lon="4.46048">
        <ele>923.861</ele>
        <time>2011-05-16T14:39:09Z</time>
      </trkpt>
      <trkpt lat="44.85416" lon="4.46053">
        <ele>923.613</ele>
        <time>2011-05-16T14:39:15Z</time>
      </trkpt>
      <trkpt lat="44.85431" lon="4.4607">
        <ele>925.59</ele>
        <time>2011-05-16T14:39:36Z</time>
      </trkpt>
      <trkpt lat="44.85441" lon="4.46085">
        <ele>927.031</ele>
        <time>2011-05-16T14:39:53Z</time>
      </trkpt>
      <trkpt lat="44.85446" lon="4.46099">
        <ele>928.927</ele>
        <time>2011-05-16T14:40:05Z</time>
      </trkpt>
      <trkpt lat="44.85445" lon="4.46125">
        <ele>931.087</ele>
        <time>2011-05-16T14:40:25Z</time>
      </trkpt>
      <trkpt lat="44.85436" lon="4.4615">
        <ele>932.598</ele>
        <time>2011-05-16T14:40:46Z</time>
      </trkpt>
      <trkpt lat="44.85433" lon="4.46156">
        <ele>932.958</ele>
        <time>2011-05-16T14:40:52Z</time>
      </trkpt>
      <trkpt lat="44.85425" lon="4.46168">
        <ele>933.316</ele>
        <time>2011-05-16T14:43:03Z</time>
      </trkpt>
      <trkpt lat="44.85427" lon="4.46173">
        <ele>933.258</ele>
        <time>2011-05-16T14:43:06Z</time>
      </trkpt>
      <trkpt lat="44.8543" lon="4.46187">
        <ele>934.723</ele>
        <time>2011-05-16T14:43:13Z</time>
      </trkpt>
      <trkpt lat="44.85435" lon="4.46214">
        <ele>936.344</ele>
        <time>2011-05-16T14:43:27Z</time>
      </trkpt>
      <trkpt lat="44.85438" lon="4.4622">
        <ele>936.952</ele>
        <time>2011-05-16T14:43:31Z</time>
      </trkpt>
      <trkpt lat="44.85437" lon="4.46229">
        <ele>937.055</ele>
        <time>2011-05-16T14:43:36Z</time>
      </trkpt>
      <trkpt lat="44.85427" lon="4.46237">
        <ele>938.961</ele>
        <time>2011-05-16T14:43:44Z</time>
      </trkpt>
      <trkpt lat="44.85404" lon="4.46242">
        <ele>941.46</ele>
        <time>2011-05-16T14:44:02Z</time>
      </trkpt>
      <trkpt lat="44.85386" lon="4.46261">
        <ele>942.887</ele>
        <time>2011-05-16T14:44:20Z</time>
      </trkpt>
      <trkpt lat="44.85361" lon="4.46281">
        <ele>945.491</ele>
        <time>2011-05-16T14:44:42Z</time>
      </trkpt>
      <trkpt lat="44.85336" lon="4.46287">
        <ele>946.816</ele>
        <time>2011-05-16T14:45:02Z</time>
      </trkpt>
      <trkpt lat="44.85312" lon="4.46293">
        <ele>947.57</ele>
        <time>2011-05-16T14:45:20Z</time>
      </trkpt>
      <trkpt lat="44.8528" lon="4.46295">
        <ele>949.391</ele>
        <time>2011-05-16T14:45:44Z</time>
      </trkpt>
      <trkpt lat="44.85274" lon="4.46294">
        <ele>949.453</ele>
        <time>2011-05-16T14:45:49Z</time>
      </trkpt>
      <trkpt lat="44.8527" lon="4.46295">
        <ele>949.619</ele>
        <time>2011-05-16T14:45:52Z</time>
      </trkpt>
      <trkpt lat="44.85237" lon="4.46292">
        <ele>950.255</ele>
        <time>2011-05-16T14:46:15Z</time>
      </trkpt>
      <trkpt lat="44.85214" lon="4.4629">
        <ele>950.232</ele>
        <time>2011-05-16T14:46:32Z</time>
      </trkpt>
      <trkpt lat="44.85187" lon="4.46282">
        <ele>951.548</ele>
        <time>2011-05-16T14:46:53Z</time>
      </trkpt>
      <trkpt lat="44.85181" lon="4.46281">
        <ele>952.044</ele>
        <time>2011-05-16T14:46:58Z</time>
      </trkpt>
      <trkpt lat="44.85173" lon="4.46279">
        <ele>952.161</ele>
        <time>2011-05-16T14:47:05Z</time>
      </trkpt>
      <trkpt lat="44.85172" lon="4.46276">
        <ele>951.892</ele>
        <time>2011-05-16T14:47:37Z</time>
      </trkpt>
      <trkpt lat="44.85167" lon="4.46271">
        <ele>952.214</ele>
        <time>2011-05-16T14:47:48Z</time>
      </trkpt>
    </trkseg>
  </trk>
</gpx>